createdAt,value
2023-05-16T00:01:13.043Z,98.10
2023-05-16T00:03:40.668Z,98.30
2023-05-16T00:06:07.921Z,98.10
2023-05-16T00:08:35.429Z,98.20
2023-05-16T00:11:02.374Z,98.20
2023-05-16T00:13:30.570Z,98.20
2023-05-16T00:15:58.022Z,98.30
2023-05-16T00:18:26.110Z,98.30
2023-05-16T00:20:54.758Z,98.40
2023-05-16T00:23:21.991Z,98.40
2023-05-16T00:25:49.281Z,98.60
2023-05-16T00:28:16.253Z,98.60
2023-05-16T00:30:43.047Z,98.50
2023-05-16T00:33:09.922Z,98.70
2023-05-16T00:35:36.869Z,98.70
2023-05-16T00:38:03.932Z,99.00
2023-05-16T00:40:30.834Z,98.70
2023-05-16T00:42:57.939Z,98.70
2023-05-16T00:45:26.983Z,98.70
2023-05-16T00:47:54.089Z,98.70
2023-05-16T00:50:21.479Z,98.70
2023-05-16T00:52:49.419Z,98.60
2023-05-16T00:55:16.381Z,98.70
2023-05-16T00:57:43.405Z,98.90
2023-05-16T01:00:10.936Z,99.00
2023-05-16T01:02:38.664Z,99.10
2023-05-16T01:05:05.977Z,99.10
2023-05-16T01:07:32.775Z,99.20
2023-05-16T01:10:00.040Z,99.20
2023-05-16T01:12:50.699Z,99.00
2023-05-16T01:15:38.960Z,99.20
2023-05-16T01:18:13.399Z,99.40
2023-05-16T01:20:56.990Z,99.20
2023-05-16T01:24:00.606Z,99.30
2023-05-16T01:26:29.966Z,99.30
2023-05-16T01:28:57.431Z,99.20
2023-05-16T01:31:24.540Z,99.30
2023-05-16T01:33:52.042Z,99.30
2023-05-16T01:36:30.634Z,99.30
2023-05-16T01:39:17.601Z,99.30
2023-05-16T01:42:08.845Z,99.50
2023-05-16T01:44:41.680Z,99.50
2023-05-16T01:47:13.026Z,99.50
2023-05-16T01:50:20.704Z,99.30
2023-05-16T01:52:57.830Z,99.30
2023-05-16T01:55:41.472Z,99.30
2023-05-16T01:58:10.224Z,99.40
2023-05-16T02:00:37.215Z,99.40
2023-05-16T02:03:04.558Z,99.20
2023-05-16T02:05:32.126Z,99.40
2023-05-16T02:07:59.921Z,99.30
2023-05-16T02:10:27.810Z,99.30
2023-05-16T02:12:54.823Z,99.20
2023-05-16T02:15:22.728Z,99.20
2023-05-16T02:17:49.811Z,99.30
2023-05-16T02:20:17.074Z,99.30
2023-05-16T02:22:44.624Z,99.00
2023-05-16T02:25:11.515Z,99.20
2023-05-16T02:27:38.503Z,99.10
2023-05-16T02:30:05.976Z,99.30
2023-05-16T02:32:34.004Z,99.10
2023-05-16T02:35:00.898Z,99.10
2023-05-16T02:37:27.740Z,99.10
2023-05-16T02:39:54.785Z,99.10
2023-05-16T02:42:21.869Z,99.00
2023-05-16T02:44:49.797Z,99.30
2023-05-16T02:47:18.073Z,99.30
2023-05-16T02:49:45.076Z,99.30
2023-05-16T02:52:13.124Z,99.40
2023-05-16T02:54:40.127Z,99.30
2023-05-16T02:57:07.076Z,99.50
2023-05-16T02:59:33.920Z,99.50
2023-05-16T03:02:01.015Z,99.40
2023-05-16T03:04:28.007Z,99.20
2023-05-16T03:06:54.918Z,99.10
2023-05-16T03:09:21.977Z,99.10
2023-05-16T03:11:48.934Z,99.10
2023-05-16T03:14:15.875Z,99.30
2023-05-16T03:16:43.991Z,99.20
2023-05-16T03:19:11.401Z,99.30
2023-05-16T03:21:38.381Z,99.30
2023-05-16T03:24:06.602Z,99.40
2023-05-16T03:26:33.690Z,99.70
2023-05-16T03:29:00.592Z,99.90
2023-05-16T03:31:27.604Z,99.90
2023-05-16T03:33:54.606Z,99.90
2023-05-16T03:36:24.194Z,99.90
2023-05-16T03:38:51.068Z,99.90
2023-05-16T03:41:17.971Z,99.90
2023-05-16T03:43:44.877Z,99.90
2023-05-16T03:46:11.728Z,99.90
2023-05-16T03:48:38.667Z,99.90
2023-05-16T03:51:05.692Z,99.90
2023-05-16T03:53:32.560Z,99.90
2023-05-16T03:56:00.910Z,99.90
2023-05-16T03:58:28.296Z,99.70
2023-05-16T04:00:55.194Z,99.80
2023-05-16T04:03:28.513Z,99.90
2023-05-16T04:05:56.489Z,99.90
2023-05-16T04:08:23.336Z,99.60
2023-05-16T04:10:50.455Z,99.50
2023-05-16T04:13:17.512Z,99.50
2023-05-16T04:15:44.518Z,99.50
2023-05-16T04:18:11.449Z,99.70
2023-05-16T04:20:38.414Z,99.40
2023-05-16T04:23:05.673Z,99.40
2023-05-16T04:25:32.810Z,99.30
2023-05-16T04:27:59.661Z,99.10
2023-05-16T04:30:26.585Z,99.10
2023-05-16T04:32:53.656Z,98.90
2023-05-16T04:35:21.962Z,99.00
2023-05-16T04:37:48.999Z,98.90
2023-05-16T04:40:17.312Z,98.50
2023-05-16T04:42:44.195Z,98.30
2023-05-16T04:45:12.040Z,98.20
2023-05-16T04:47:39.276Z,98.60
2023-05-16T04:50:07.131Z,98.10
2023-05-16T04:52:33.961Z,98.10
2023-05-16T04:55:01.067Z,98.00
2023-05-16T04:57:28.162Z,98.10
2023-05-16T04:59:55.070Z,98.10
2023-05-16T05:02:21.969Z,98.10
2023-05-16T05:04:49.675Z,98.10
2023-05-16T05:07:16.677Z,98.10
2023-05-16T05:09:43.805Z,98.20
2023-05-16T05:12:11.572Z,97.90
2023-05-16T05:14:38.386Z,97.90
2023-05-16T05:17:08.618Z,98.00
2023-05-16T05:19:35.727Z,97.80
2023-05-16T05:22:02.651Z,97.70
2023-05-16T05:24:29.452Z,97.60
2023-05-16T05:26:56.909Z,97.70
2023-05-16T05:29:23.768Z,97.60
2023-05-16T05:31:50.863Z,97.40
2023-05-16T05:34:17.842Z,97.40
2023-05-16T05:36:44.676Z,97.30
2023-05-16T05:39:11.810Z,97.20
2023-05-16T05:41:39.962Z,97.00
2023-05-16T05:44:07.027Z,97.20
2023-05-16T05:46:34.331Z,97.00
2023-05-16T05:49:01.586Z,96.80
2023-05-16T05:51:28.572Z,97.00
2023-05-16T05:53:56.128Z,96.70
2023-05-16T05:56:24.734Z,96.70
2023-05-16T05:58:51.669Z,96.50
2023-05-16T06:01:18.695Z,96.40
2023-05-16T06:03:45.604Z,96.30
2023-05-16T06:06:12.384Z,96.10
2023-05-16T06:08:39.241Z,96.30
2023-05-16T06:11:06.338Z,96.20
2023-05-16T06:13:33.171Z,96.10
2023-05-16T06:15:59.997Z,95.90
2023-05-16T06:18:27.204Z,95.70
2023-05-16T06:20:54.228Z,95.80
2023-05-16T06:23:22.159Z,95.20
2023-05-16T06:25:49.190Z,95.30
2023-05-16T06:28:15.972Z,95.00
2023-05-16T06:30:42.770Z,95.10
2023-05-16T06:33:10.421Z,94.70
2023-05-16T06:35:37.343Z,95.10
2023-05-16T06:38:04.338Z,94.50
2023-05-16T06:40:31.240Z,94.50
2023-05-16T06:42:58.557Z,94.20
2023-05-16T06:45:26.330Z,94.00
2023-05-16T06:47:56.549Z,94.10
2023-05-16T06:50:24.524Z,93.40
2023-05-16T06:52:51.678Z,93.40
2023-05-16T06:55:18.736Z,93.50
2023-05-16T06:57:45.905Z,93.10
2023-05-16T07:00:13.241Z,93.20
2023-05-16T07:02:40.428Z,93.20
2023-05-16T07:05:07.911Z,93.20
2023-05-16T07:07:35.421Z,93.00
2023-05-16T07:10:03.274Z,93.10
2023-05-16T07:12:30.341Z,93.20
2023-05-16T07:14:57.349Z,93.10
2023-05-16T07:17:24.225Z,92.90
2023-05-16T07:19:51.148Z,93.10
2023-05-16T07:22:17.999Z,93.00
2023-05-16T07:24:44.922Z,93.00
2023-05-16T07:27:11.778Z,93.10
2023-05-16T07:29:39.835Z,92.90
2023-05-16T07:32:06.780Z,93.20
2023-05-16T07:34:33.879Z,93.30
2023-05-16T07:37:00.810Z,93.40
2023-05-16T07:39:27.666Z,93.60
2023-05-16T07:41:54.709Z,93.90
2023-05-16T07:44:21.680Z,93.50
2023-05-16T07:46:48.690Z,93.60
2023-05-16T07:49:15.717Z,93.80
2023-05-16T07:51:42.940Z,94.00
2023-05-16T07:54:09.881Z,94.10
2023-05-16T07:56:36.813Z,94.20
2023-05-16T07:59:05.913Z,94.20
2023-05-16T08:01:33.055Z,94.00
2023-05-16T08:04:00.069Z,94.30
2023-05-16T08:06:27.040Z,94.30
2023-05-16T08:08:53.876Z,94.40
2023-05-16T08:11:22.683Z,94.20
2023-05-16T08:13:50.182Z,95.00
2023-05-16T08:16:17.405Z,94.70
2023-05-16T08:18:44.539Z,95.00
2023-05-16T08:21:11.413Z,94.90
2023-05-16T08:23:38.478Z,95.00
2023-05-16T08:26:05.387Z,95.10
2023-05-16T08:28:32.284Z,95.00
2023-05-16T08:30:59.468Z,94.70
2023-05-16T08:33:26.500Z,95.30
2023-05-16T08:35:53.329Z,94.70
2023-05-16T08:38:20.692Z,94.80
2023-05-16T08:40:47.777Z,94.80
2023-05-16T08:43:15.263Z,95.00
2023-05-16T08:45:42.725Z,95.00
2023-05-16T08:48:11.291Z,95.20
2023-05-16T08:50:38.304Z,95.00
2023-05-16T08:53:07.767Z,95.30
2023-05-16T08:55:36.460Z,95.20
2023-05-16T08:58:04.382Z,95.50
2023-05-16T09:00:31.745Z,95.70
2023-05-16T09:02:59.620Z,96.10
2023-05-16T09:05:28.325Z,96.10
2023-05-16T09:07:55.774Z,95.80
2023-05-16T09:10:22.833Z,96.60
2023-05-16T09:12:49.747Z,95.90
2023-05-16T09:15:18.787Z,95.80
2023-05-16T09:17:47.179Z,96.30
2023-05-16T09:20:16.802Z,95.60
2023-05-16T09:22:54.018Z,95.90
2023-05-16T09:25:30.407Z,95.60
2023-05-16T09:28:00.012Z,94.90
2023-05-16T09:30:32.410Z,94.90
2023-05-16T09:32:59.718Z,94.60
2023-05-16T09:37:57.007Z,94.50
2023-05-16T09:40:24.260Z,94.80
2023-05-16T09:43:05.885Z,94.80
2023-05-16T09:45:34.294Z,94.80
2023-05-16T09:48:09.559Z,95.00
2023-05-16T09:50:37.804Z,94.90
2023-05-16T09:53:05.254Z,94.30
2023-05-16T09:55:32.921Z,93.70
2023-05-16T09:58:00.005Z,93.20
2023-05-16T10:00:34.480Z,93.00
2023-05-16T10:03:05.218Z,92.70
2023-05-16T10:05:33.832Z,92.40
2023-05-16T10:08:04.144Z,92.50
2023-05-16T10:10:33.806Z,92.30
2023-05-16T10:13:04.508Z,92.30
2023-05-16T10:15:32.117Z,92.60
2023-05-16T10:18:00.708Z,92.30
2023-05-16T10:20:28.178Z,92.30
2023-05-16T10:22:56.886Z,92.00
2023-05-16T10:25:34.100Z,92.00
2023-05-16T10:28:02.073Z,92.10
2023-05-16T10:30:29.512Z,91.70
2023-05-16T10:32:57.853Z,91.40
2023-05-16T10:35:25.165Z,91.30
2023-05-16T10:37:53.012Z,91.10
2023-05-16T10:40:20.568Z,90.40
2023-05-16T10:42:58.392Z,90.00
2023-05-16T10:45:25.679Z,90.20
2023-05-16T10:47:57.950Z,88.40
2023-05-16T10:50:54.620Z,86.70
2023-05-16T10:53:22.573Z,85.10
2023-05-16T10:55:52.235Z,85.30
2023-05-16T10:58:24.479Z,83.30
2023-05-16T11:01:24.763Z,82.80
2023-05-16T11:04:01.131Z,83.50
2023-05-16T11:06:32.791Z,80.20
2023-05-16T11:09:05.878Z,78.40
2023-05-16T11:11:57.548Z,80.90
2023-05-16T11:14:42.270Z,77.10
2023-05-16T11:17:16.405Z,77.10
2023-05-16T11:19:49.346Z,71.70
2023-05-16T11:22:24.411Z,72.40
2023-05-16T11:25:09.732Z,69.80
2023-05-16T11:27:44.276Z,74.20
2023-05-16T11:30:13.188Z,69.40
2023-05-16T11:32:46.286Z,69.50
2023-05-16T11:35:18.153Z,72.00
2023-05-16T11:37:47.110Z,74.80
2023-05-16T11:40:16.640Z,70.60
2023-05-16T11:42:48.166Z,71.20
2023-05-16T11:45:20.163Z,69.10
2023-05-16T11:47:48.677Z,68.30
2023-05-16T11:50:17.822Z,68.50
2023-05-16T11:52:47.188Z,68.10
2023-05-16T11:55:28.238Z,67.70
2023-05-16T11:58:00.505Z,66.30
2023-05-16T12:00:28.104Z,65.00
2023-05-16T12:03:03.221Z,65.30
2023-05-16T12:05:33.185Z,65.40
2023-05-16T12:08:00.680Z,65.30
2023-05-16T12:10:27.780Z,64.90
2023-05-16T12:12:55.346Z,64.60
2023-05-16T12:15:22.772Z,66.00
2023-05-16T12:17:50.765Z,66.70
2023-05-16T12:20:18.697Z,64.90
2023-05-16T12:22:46.527Z,67.80
2023-05-16T12:25:26.511Z,65.20
2023-05-16T12:27:59.176Z,62.90
2023-05-16T12:30:28.668Z,62.10
2023-05-16T12:32:57.841Z,60.80
2023-05-16T12:35:26.921Z,59.10
2023-05-16T12:37:54.043Z,58.90
2023-05-16T12:40:21.072Z,57.90
2023-05-16T12:42:51.654Z,58.40
2023-05-16T12:45:18.741Z,58.90
2023-05-16T12:47:47.193Z,57.30
2023-05-16T12:50:16.327Z,57.10
2023-05-16T12:53:01.787Z,57.70
2023-05-16T12:55:28.727Z,58.10
2023-05-16T12:57:57.637Z,57.10
2023-05-16T13:00:24.690Z,55.70
2023-05-16T13:02:52.287Z,53.40
2023-05-16T13:05:20.663Z,52.20
2023-05-16T13:07:47.767Z,52.60
2023-05-16T13:10:14.693Z,51.80
2023-05-16T13:12:41.877Z,49.60
2023-05-16T13:15:10.630Z,49.80
2023-05-16T13:17:43.993Z,47.80
2023-05-16T13:20:15.135Z,47.30
2023-05-16T13:22:43.679Z,45.70
2023-05-16T13:25:11.454Z,44.70
2023-05-16T13:27:38.303Z,45.10
2023-05-16T13:30:05.840Z,45.20
2023-05-16T13:32:32.982Z,41.50
2023-05-16T13:34:59.945Z,42.30
2023-05-16T13:37:26.983Z,41.00
2023-05-16T13:39:54.901Z,41.10
2023-05-16T13:42:23.800Z,41.20
2023-05-16T13:44:51.572Z,39.40
2023-05-16T13:47:18.424Z,40.90
2023-05-16T13:49:45.886Z,39.70
2023-05-16T13:52:13.123Z,38.90
2023-05-16T13:54:41.439Z,39.40
2023-05-16T13:57:08.550Z,38.90
2023-05-16T13:59:56.775Z,40.20
2023-05-16T14:02:23.035Z,40.60
2023-05-16T14:04:50.148Z,41.00
2023-05-16T14:07:17.216Z,41.00
2023-05-16T14:09:45.269Z,41.00
2023-05-16T14:12:12.095Z,41.40
2023-05-16T14:14:39.102Z,41.20
2023-05-16T14:17:06.863Z,38.10
2023-05-16T14:19:34.614Z,37.80
2023-05-16T14:22:01.578Z,37.40
2023-05-16T14:24:28.481Z,36.90
2023-05-16T14:26:55.568Z,37.10
2023-05-16T14:29:22.698Z,38.10
2023-05-16T14:31:49.850Z,37.50
2023-05-16T14:34:16.790Z,36.30
2023-05-16T14:36:43.808Z,36.80
2023-05-16T14:39:10.875Z,36.90
2023-05-16T14:41:37.781Z,37.30
2023-05-16T14:44:04.852Z,35.90
2023-05-16T14:46:31.862Z,37.60
2023-05-16T14:48:58.786Z,37.90
2023-05-16T14:51:25.908Z,38.10
2023-05-16T14:53:53.871Z,38.90
2023-05-16T14:56:22.006Z,39.10
2023-05-16T14:58:48.762Z,40.00
2023-05-16T15:01:16.719Z,39.40
2023-05-16T15:03:54.501Z,40.30
2023-05-16T15:06:22.612Z,40.30
2023-05-16T15:08:49.539Z,40.70
2023-05-16T15:11:16.421Z,41.40
2023-05-16T15:13:43.404Z,40.70
2023-05-16T15:16:10.604Z,41.80
2023-05-16T15:18:37.648Z,42.30
2023-05-16T15:21:04.801Z,42.30
2023-05-16T15:23:31.802Z,41.40
2023-05-16T15:25:58.706Z,41.10
2023-05-16T15:28:25.718Z,40.50
2023-05-16T15:30:52.572Z,41.20
2023-05-16T15:33:19.789Z,41.70
2023-05-16T15:35:46.930Z,41.10
2023-05-16T15:38:13.892Z,40.50
2023-05-16T15:40:40.938Z,40.40
2023-05-16T15:43:07.810Z,41.20
2023-05-16T15:45:35.937Z,41.80
2023-05-16T15:48:03.905Z,41.60
2023-05-16T15:50:31.297Z,40.70
2023-05-16T15:53:01.144Z,41.70
2023-05-16T15:55:28.275Z,41.70
2023-05-16T15:57:57.387Z,42.10
2023-05-16T16:00:27.191Z,41.90
2023-05-16T16:02:54.278Z,42.40
2023-05-16T16:05:21.293Z,42.00
2023-05-16T16:07:48.237Z,42.10
2023-05-16T16:10:15.166Z,41.90
2023-05-16T16:12:42.046Z,43.10
2023-05-16T16:15:10.858Z,43.40
2023-05-16T16:17:38.018Z,43.20
2023-05-16T16:20:05.620Z,43.20
2023-05-16T16:22:32.538Z,43.50
2023-05-16T16:25:00.563Z,43.50
2023-05-16T16:27:27.616Z,43.50
2023-05-16T16:29:54.590Z,43.50
2023-05-16T16:32:21.557Z,44.10
2023-05-16T16:34:49.386Z,44.00
2023-05-16T16:37:16.702Z,44.40
2023-05-16T16:39:43.570Z,44.80
2023-05-16T16:42:10.609Z,44.20
2023-05-16T16:44:37.568Z,44.60
2023-05-16T16:47:04.846Z,45.00
2023-05-16T16:49:31.846Z,45.40
2023-05-16T16:51:58.873Z,44.90
2023-05-16T16:54:26.079Z,45.00
2023-05-16T16:56:52.996Z,45.40
2023-05-16T16:59:20.121Z,45.40
2023-05-16T17:01:47.249Z,45.60
2023-05-16T17:04:14.224Z,45.80
2023-05-16T17:06:41.212Z,45.80
2023-05-16T17:09:13.634Z,45.80
2023-05-16T17:11:42.309Z,46.20
2023-05-16T17:14:10.900Z,46.30
2023-05-16T17:16:38.561Z,46.30
2023-05-16T17:19:05.715Z,46.40
2023-05-16T17:21:34.736Z,46.30
2023-05-16T17:24:02.088Z,45.50
2023-05-16T17:26:29.424Z,45.60
2023-05-16T17:28:56.661Z,46.20
2023-05-16T17:31:23.599Z,46.60
2023-05-16T17:33:51.156Z,47.00
2023-05-16T17:36:18.141Z,46.50
2023-05-16T17:38:45.436Z,47.20
2023-05-16T17:41:12.593Z,47.50
2023-05-16T17:43:39.718Z,47.20
2023-05-16T17:46:07.588Z,47.60
2023-05-16T17:48:34.887Z,48.40
2023-05-16T17:51:02.614Z,48.60
2023-05-16T17:53:32.148Z,49.00
2023-05-16T17:55:59.857Z,48.90
2023-05-16T17:58:26.895Z,49.00
2023-05-16T18:00:54.703Z,49.10
2023-05-16T18:03:21.716Z,48.60
2023-05-16T18:05:49.818Z,48.50
2023-05-16T18:08:16.671Z,47.70
2023-05-16T18:10:52.023Z,48.70
2023-05-16T18:13:20.512Z,48.90
2023-05-16T18:15:47.449Z,47.80
2023-05-16T18:18:14.377Z,47.70
2023-05-16T18:20:41.631Z,47.30
2023-05-16T18:23:08.572Z,47.20
2023-05-16T18:25:35.459Z,47.40
2023-05-16T18:28:02.909Z,46.90
2023-05-16T18:30:30.053Z,47.10
2023-05-16T18:32:57.014Z,47.00
2023-05-16T18:35:24.029Z,47.50
2023-05-16T18:37:51.216Z,47.10
2023-05-16T18:40:18.387Z,47.10
2023-05-16T18:42:45.443Z,46.80
2023-05-16T18:45:12.334Z,46.70
2023-05-16T18:47:39.329Z,46.90
2023-05-16T18:50:07.034Z,47.30
2023-05-16T18:52:35.474Z,47.50
2023-05-16T18:55:02.554Z,47.30
2023-05-16T18:57:29.472Z,47.30
2023-05-16T18:59:56.633Z,46.90
2023-05-16T19:02:33.923Z,46.50
2023-05-16T19:05:11.044Z,45.90
2023-05-16T19:07:38.159Z,46.20
2023-05-16T19:10:05.682Z,46.10
2023-05-16T19:12:32.637Z,45.10
2023-05-16T19:14:59.527Z,44.90
2023-05-16T19:17:26.832Z,44.60
2023-05-16T19:19:53.863Z,44.50
2023-05-16T19:22:20.956Z,44.60
2023-05-16T19:24:48.063Z,44.50
2023-05-16T19:27:15.003Z,44.90
2023-05-16T19:29:42.023Z,44.80
2023-05-16T19:32:09.051Z,45.30
2023-05-16T19:34:36.203Z,45.50
2023-05-16T19:37:04.237Z,46.10
2023-05-16T19:39:32.208Z,45.10
2023-05-16T19:42:07.172Z,45.40
2023-05-16T19:44:34.978Z,45.60
2023-05-16T19:47:02.025Z,45.70
2023-05-16T19:49:31.745Z,45.40
2023-05-16T19:51:58.829Z,45.30
2023-05-16T19:54:25.848Z,45.70
2023-05-16T19:56:52.804Z,45.80
2023-05-16T19:59:20.545Z,45.90
2023-05-16T20:01:47.543Z,45.90
2023-05-16T20:04:14.592Z,45.60
2023-05-16T20:06:41.650Z,45.40
2023-05-16T20:09:08.800Z,45.80
2023-05-16T20:11:35.766Z,45.40
2023-05-16T20:14:02.696Z,45.40
2023-05-16T20:16:29.756Z,45.70
2023-05-16T20:18:56.841Z,45.70
2023-05-16T20:21:23.815Z,45.50
2023-05-16T20:23:50.932Z,45.50
2023-05-16T20:26:17.934Z,45.30
2023-05-16T20:28:44.848Z,45.20
2023-05-16T20:31:11.823Z,45.00
2023-05-16T20:33:38.829Z,45.10
2023-05-16T20:36:05.877Z,45.00
2023-05-16T20:38:32.820Z,45.20
2023-05-16T20:41:00.006Z,45.40
2023-05-16T20:43:26.993Z,45.50
2023-05-16T20:45:54.239Z,45.10
2023-05-16T20:48:21.328Z,45.50
2023-05-16T20:50:48.347Z,45.30
2023-05-16T20:53:15.360Z,45.20
2023-05-16T20:55:42.302Z,45.30
2023-05-16T20:58:09.205Z,45.90
2023-05-16T21:00:36.071Z,45.70
2023-05-16T21:03:03.237Z,46.20
2023-05-16T21:05:30.271Z,46.20
2023-05-16T21:07:57.236Z,46.00
2023-05-16T21:10:24.157Z,46.30
2023-05-16T21:12:51.112Z,46.40
2023-05-16T21:15:18.828Z,46.40
2023-05-16T21:17:46.777Z,46.60
2023-05-16T21:20:13.814Z,46.60
2023-05-16T21:22:41.059Z,46.60
2023-05-16T21:25:08.268Z,46.80
2023-05-16T21:27:35.318Z,46.90
2023-05-16T21:30:02.300Z,47.00
2023-05-16T21:32:32.425Z,47.10
2023-05-16T21:35:01.216Z,47.40
2023-05-16T21:37:28.258Z,47.10
2023-05-16T21:39:55.393Z,47.30
2023-05-16T21:42:22.321Z,47.40
2023-05-16T21:44:49.360Z,47.50
2023-05-16T21:47:16.293Z,47.60
2023-05-16T21:49:43.239Z,47.80
2023-05-16T21:52:10.412Z,47.70
2023-05-16T21:54:37.474Z,47.80
2023-05-16T21:57:04.638Z,47.60
2023-05-16T21:59:31.740Z,47.70
2023-05-16T22:01:58.643Z,48.20
2023-05-16T22:04:25.640Z,48.10
2023-05-16T22:06:52.904Z,48.10
2023-05-16T22:09:19.929Z,48.30
2023-05-16T22:11:46.804Z,48.20
2023-05-16T22:14:13.743Z,48.20
2023-05-16T22:16:40.745Z,48.40
2023-05-16T22:19:09.170Z,48.20
2023-05-16T22:21:36.213Z,48.50
2023-05-16T22:24:03.381Z,48.40
2023-05-16T22:26:30.306Z,48.80
2023-05-16T22:28:57.203Z,48.50
2023-05-16T22:31:24.179Z,48.40
2023-05-16T22:33:51.057Z,48.60
2023-05-16T22:36:18.032Z,48.80
2023-05-16T22:38:44.972Z,48.90
2023-05-16T22:41:12.027Z,48.70
2023-05-16T22:43:39.768Z,48.70
2023-05-16T22:46:07.817Z,49.00
2023-05-16T22:48:34.716Z,48.90
2023-05-16T22:51:02.804Z,49.00
2023-05-16T22:53:29.832Z,49.00
2023-05-16T22:55:56.841Z,49.00
2023-05-16T22:58:23.874Z,49.00
2023-05-16T23:00:51.221Z,49.00
2023-05-16T23:03:18.186Z,48.90
2023-05-16T23:05:45.203Z,49.00
2023-05-16T23:08:12.172Z,49.20
2023-05-16T23:10:39.169Z,49.00
2023-05-16T23:13:06.178Z,49.00
2023-05-16T23:15:33.039Z,48.80
2023-05-16T23:18:00.116Z,49.20
2023-05-16T23:20:27.223Z,49.00
2023-05-16T23:22:54.052Z,49.00
2023-05-16T23:25:21.089Z,49.00
2023-05-16T23:27:48.173Z,49.10
2023-05-16T23:30:15.577Z,49.00
2023-05-16T23:32:42.512Z,49.20
2023-05-16T23:35:09.639Z,49.30
2023-05-16T23:37:36.817Z,49.30
2023-05-16T23:40:03.982Z,49.30
2023-05-16T23:42:31.288Z,49.00
2023-05-16T23:47:25.101Z,49.30
2023-05-16T23:49:52.356Z,49.00
2023-05-16T23:52:19.246Z,48.80
2023-05-16T23:54:46.170Z,49.00
2023-05-16T23:57:13.280Z,49.00
2023-05-16T23:59:41.096Z,48.90
